1974 NOT_NAMED (1974017S20150)


IBTrACS version v04r00. Visit IBTrACS website for data access.
Please direct all questions to the IBTrACS Q and A forum

Storm track - Intensity - Wind Radii - Intensity Data - Source Data - All data

Summary Information

Storm ID 1974017S20150
Start Jan 17 00Z
End Jan 19 18Z
ATCF IDs SH171974
Track status Best track data.
Spur track This storm is a spur track associated with the main storm: 1974018S20149

Storm track plot

Map of storm track

Intensity plots

No Intensity information for this storm


Radial wind information

No radial wind information for this storm


Position and Intensity Table

BASIN ISO_TIME_________ NATURE LAT LON
degrees north degrees east
SP 1974-01-17 00:00:00 TS -19.50 150.30
SP 03:00:00 TS -19.55 150.35
SP 06:00:00 TS -19.59 150.42
SP 09:00:00 TS -19.61 150.54
SP 12:00:00 TS -19.60 150.70
SP 15:00:00 TS -19.56 150.89
SP 18:00:00 TS -19.51 151.10
SP 21:00:00 TS -19.45 151.30
SP 23:00:00 TS -19.42 151.44
SP 1974-01-18 00:00:00 TS -19.40 151.50
SP 03:00:00 TS -19.35 151.65
SP 05:00:00 TS -19.32 151.75
SP 06:00:00 TS -19.30 151.79
SP 08:00:00 TS -19.27 151.89
SP 09:00:00 TS -19.25 151.93
SP 11:00:00 TS -19.22 152.04
SP 12:00:00 TS -19.20 152.10
SP 14:00:00 TS -19.16 152.25
SP 15:00:00 TS -19.15 152.34
SP 17:00:00 TS -19.11 152.52
SP 18:00:00 TS -19.10 152.61
SP 21:00:00 TS -19.04 152.88
SP 23:00:00 TS -19.01 153.03
SP 1974-01-19 00:00:00 TS -19.00 153.10
SP 02:00:00 TS -18.99 153.19
SP 03:00:00 TS -18.99 153.23
SP 05:00:00 TS -18.99 153.28
SP 06:00:00 TS -18.99 153.30
SP 08:00:00 TS -18.99 153.34
SP 09:00:00 TS -18.99 153.36
SP 11:00:00 TS -19.00 153.39
SP 12:00:00 TS -19.00 153.40
SP 14:00:00 TS -18.99 153.38
SP 15:00:00 TS -18.98 153.37
SP 17:00:00 TS -18.97 153.37
SP 18:00:00 TS -18.98 153.39

Source Information

Agency Information
USA bsh171974.txt
TOKYO
CMA
HKO
NEWDELHI
REUNION
BOM
NADI
WELLINGTON
DS824 s_hem.dat:1245:17P
TD9636 cons_worldwide_trop_cyclone_18710101-19891231-006:Line=9486
TD9635
NEUMANN
MLC

All available IBTrACS Data

SEASON BASIN SUBBASIN ISO_TIME_________ NATURE LAT LON DIST2LAND LANDFALL IFLAG USA AGENCY USA ATCF_ID USA LAT USA LON USA SSHS DS824 LAT DS824 LON DS824 STAGE TD9636 LAT TD9636 LON TD9636 STAGE STORM SPEED STORM DIR
Year degrees north degrees east km km degrees north degrees east 1 degrees north degrees east degrees north degrees east kts degrees
1974 SP EA 1974-01-17 00:00:00 TS -19.50 150.30 180 175 O________OO___ jtwc_sh SH171974 -19.50 150.30 -1 -19.50 150.30 TC -19.50 150.30 2 1 141
1974 SP EA 03:00:00 TS -19.55 150.35 175 175 P________PP___ SH171974 -19.56 150.33 -1 -19.56 150.33 TC -19.54 150.37 2 1 129
1974 SP EA 06:00:00 TS -19.59 150.42 184 184 O________OP___ jtwc_sh SH171974 -19.60 150.40 -1 -19.60 150.40 TC -19.58 150.45 2 2 108
1974 SP EA 09:00:00 TS -19.61 150.54 194 194 P________PP___ SH171974 -19.61 150.53 -1 -19.61 150.53 TC -19.60 150.56 2 3 91
1974 SP EA 12:00:00 TS -19.60 150.70 213 213 O________OO___ jtwc_sh SH171974 -19.60 150.70 -1 -19.60 150.70 TC -19.60 150.70 2 3 82
1974 SP EA 15:00:00 TS -19.56 150.89 231 231 P________PP___ SH171974 -19.56 150.89 -1 -19.56 150.89 TC -19.57 150.88 2 4 76
1974 SP EA 18:00:00 TS -19.51 151.10 255 255 O________OP___ jtwc_sh SH171974 -19.50 151.10 -1 -19.50 151.10 TC -19.52 151.09 2 4 75
1974 SP EA 21:00:00 TS -19.45 151.30 274 274 P________PP___ SH171974 -19.45 151.31 -1 -19.45 151.31 TC -19.46 151.30 2 4 75
1974 SP EA 23:00:00 TS -19.42 151.44 288 288 P________PP___ SH171974 -19.42 151.44 -1 -19.42 151.44 TC -19.42 151.44 2 4 74
1974 SP EA 1974-01-18 00:00:00 TS -19.40 151.50 298 298 O________OO___ jtwc_sh SH171974 -19.40 151.50 -1 -19.40 151.50 TC -19.40 151.50 2 3 72
1974 SP EA 03:00:00 TS -19.35 151.65 322 322 P________PP___ SH171974 -19.35 151.66 -1 -19.35 151.66 TC -19.35 151.65 2 3 70
1974 SP EA 05:00:00 TS -19.32 151.75 322 331 P________PP___ SH171974 -19.32 151.75 -1 -19.32 151.75 TC -19.32 151.74 2 3 69
1974 SP EA 06:00:00 TS -19.30 151.79 331 331 O________OP___ jtwc_sh SH171974 -19.30 151.80 -1 -19.30 151.80 TC -19.30 151.78 2 3 69
1974 SP EA 08:00:00 TS -19.27 151.89 341 341 P________PP___ SH171974 -19.27 151.89 -1 -19.27 151.89 TC -19.27 151.88 2 3 69
1974 SP EA 09:00:00 TS -19.25 151.93 345 345 P________PP___ SH171974 -19.25 151.93 -1 -19.25 151.93 TC -19.25 151.93 2 3 71
1974 SP EA 11:00:00 TS -19.22 152.04 355 355 P________PP___ SH171974 -19.22 152.04 -1 -19.22 152.04 TC -19.22 152.04 2 3 73
1974 SP EA 12:00:00 TS -19.20 152.10 364 364 O________OO___ jtwc_sh SH171974 -19.20 152.10 -1 -19.20 152.10 TC -19.20 152.10 2 4 76
1974 SP EA 14:00:00 TS -19.16 152.25 384 384 P________PP___ SH171974 -19.17 152.25 -1 -19.17 152.25 TC -19.16 152.26 2 5 77
1974 SP EA 15:00:00 TS -19.15 152.34 388 388 P________PP___ SH171974 -19.15 152.34 -1 -19.15 152.34 TC -19.14 152.35 2 5 78
1974 SP EA 17:00:00 TS -19.11 152.52 407 407 P________PP___ SH171974 -19.12 152.51 -1 -19.12 152.51 TC -19.10 152.53 2 5 78
1974 SP EA 18:00:00 TS -19.10 152.61 417 417 O________OP___ jtwc_sh SH171974 -19.10 152.60 -1 -19.10 152.60 TC -19.09 152.62 2 5 78
1974 SP EA 21:00:00 TS -19.04 152.88 443 443 P________PP___ SH171974 -19.04 152.87 -1 -19.04 152.87 TC -19.04 152.88 2 5 78
1974 SP EA 23:00:00 TS -19.01 153.03 449 449 P________PP___ SH171974 -19.01 153.03 -1 -19.01 153.03 TC -19.01 153.04 2 4 79
1974 SP EA 1974-01-19 00:00:00 TS -19.00 153.10 454 454 O________OO___ jtwc_sh SH171974 -19.00 153.10 -1 -19.00 153.10 TC -19.00 153.10 2 3 82
1974 SP EA 02:00:00 TS -18.99 153.19 460 460 P________PP___ SH171974 -18.99 153.20 -1 -18.99 153.20 TC -18.99 153.20 2 2 85
1974 SP EA 03:00:00 TS -18.99 153.23 460 460 P________PP___ SH171974 -18.99 153.23 -1 -18.99 153.23 TC -18.98 153.24 2 2 90
1974 SP EA 05:00:00 TS -18.99 153.28 466 466 P________PP___ SH171974 -19.00 153.28 -1 -19.00 153.28 TC -18.98 153.31 2 1 93
1974 SP EA 06:00:00 TS -18.99 153.30 466 466 O________OP___ jtwc_sh SH171974 -19.00 153.30 -1 -19.00 153.30 TC -18.98 153.33 2 1 93
1974 SP EA 08:00:00 TS -18.99 153.34 466 466 P________PP___ SH171974 -19.00 153.35 -1 -19.00 153.35 TC -18.98 153.36 2 1 92
1974 SP EA 09:00:00 TS -18.99 153.36 472 472 P________PP___ SH171974 -19.00 153.37 -1 -19.00 153.37 TC -18.99 153.37 2 1 96
1974 SP EA 11:00:00 TS -19.00 153.39 472 472 P________PP___ SH171974 -19.00 153.39 -1 -19.00 153.39 TC -19.00 153.39 2 1 98
1974 SP EA 12:00:00 TS -19.00 153.40 472 472 O________OO___ jtwc_sh SH171974 -19.00 153.40 -1 -19.00 153.40 TC -19.00 153.40 2 0 0
1974 SP EA 14:00:00 TS -18.99 153.38 472 472 P________P____ SH171974 -19.00 153.41 -1 -19.00 153.41 TC 2 1 0
1974 SP EA 15:00:00 TS -18.98 153.37 472 472 P________P____ SH171974 -19.00 153.41 -1 -19.00 153.41 TC 2 0 0
1974 SP EA 17:00:00 TS -18.97 153.37 472 472 P________P____ SH171974 -19.00 153.40 -1 -19.00 153.40 TC 2 0 0
1974 SP EA 18:00:00 TS -18.98 153.39 472 O________O____ jtwc_sh SH171974 -19.00 153.40 -1 -19.00 153.40 TC 2 1 0